createdAt,value
2017-10-05T00:01:35.133Z,11.90
2017-10-05T00:04:03.436Z,11.90
2017-10-05T00:06:30.968Z,11.90
2017-10-05T00:08:59.264Z,11.80
2017-10-05T00:11:26.794Z,11.80
2017-10-05T00:13:55.119Z,11.90
2017-10-05T00:16:22.663Z,11.90
2017-10-05T00:18:50.218Z,11.90
2017-10-05T00:21:17.744Z,11.90
2017-10-05T00:23:45.308Z,11.90
2017-10-05T00:26:12.846Z,11.90
2017-10-05T00:28:40.389Z,12.00
2017-10-05T00:31:07.918Z,11.90
2017-10-05T00:33:35.456Z,11.90
2017-10-05T00:36:03.759Z,11.90
2017-10-05T00:38:31.288Z,11.90
2017-10-05T00:40:59.595Z,11.90
2017-10-05T00:43:27.131Z,11.80
2017-10-05T00:45:55.434Z,12.00
2017-10-05T00:48:22.968Z,11.90
2017-10-05T00:50:51.266Z,12.00
2017-10-05T00:53:18.794Z,12.00
2017-10-05T00:55:46.350Z,12.00
2017-10-05T00:58:13.883Z,12.00
2017-10-05T01:00:41.463Z,11.90
2017-10-05T01:03:09.004Z,11.90
2017-10-05T01:05:36.542Z,11.90
2017-10-05T01:08:04.074Z,11.90
2017-10-05T01:10:32.378Z,11.90
2017-10-05T01:12:59.915Z,11.90
2017-10-05T01:15:28.227Z,11.90
2017-10-05T01:17:55.763Z,11.90
2017-10-05T01:20:23.306Z,12.00
2017-10-05T01:22:51.607Z,12.00
2017-10-05T01:25:19.140Z,12.00
2017-10-05T01:27:47.466Z,12.00
2017-10-05T01:30:14.998Z,12.00
2017-10-05T01:32:42.561Z,12.00
2017-10-05T01:35:10.089Z,12.00
2017-10-05T01:37:37.618Z,12.00
2017-10-05T01:40:05.147Z,12.00
2017-10-05T01:42:32.674Z,11.90
2017-10-05T01:45:00.204Z,11.90
2017-10-05T01:47:27.746Z,11.90
2017-10-05T01:49:55.282Z,11.90
2017-10-05T01:52:22.819Z,11.80
2017-10-05T01:54:50.390Z,11.70
2017-10-05T01:57:18.692Z,11.70
2017-10-05T01:59:46.252Z,11.70
2017-10-05T02:02:13.787Z,11.60
2017-10-05T02:04:42.131Z,11.60
2017-10-05T02:07:09.686Z,11.60
2017-10-05T02:09:37.223Z,11.60
2017-10-05T02:12:04.758Z,11.60
2017-10-05T02:14:32.298Z,11.60
2017-10-05T02:17:00.594Z,11.50
2017-10-05T02:19:28.891Z,11.60
2017-10-05T02:21:56.428Z,11.50
2017-10-05T02:24:24.731Z,11.60
2017-10-05T02:26:52.263Z,11.60
2017-10-05T02:29:20.562Z,11.50
2017-10-05T02:31:48.118Z,11.50
2017-10-05T02:34:15.645Z,11.50
2017-10-05T02:36:43.209Z,11.40
2017-10-05T02:39:11.513Z,11.40
2017-10-05T02:41:39.075Z,11.40
2017-10-05T02:44:06.607Z,11.40
2017-10-05T02:46:34.184Z,11.30
2017-10-05T02:49:02.485Z,11.30
2017-10-05T02:51:30.016Z,11.30
2017-10-05T02:53:58.318Z,11.30
2017-10-05T02:56:25.854Z,11.30
2017-10-05T02:58:54.164Z,11.20
2017-10-05T03:01:21.704Z,11.20
2017-10-05T03:03:49.260Z,11.20
2017-10-05T03:06:17.557Z,11.10
2017-10-05T03:08:45.122Z,11.10
2017-10-05T03:11:12.655Z,11.10
2017-10-05T03:13:40.943Z,11.10
2017-10-05T03:16:08.511Z,11.10
2017-10-05T03:18:36.043Z,11.10
2017-10-05T03:21:04.354Z,11.10
2017-10-05T03:23:31.881Z,11.10
2017-10-05T03:25:59.471Z,11.00
2017-10-05T03:28:27.002Z,11.10
2017-10-05T03:30:55.327Z,11.00
2017-10-05T03:33:22.875Z,11.10
2017-10-05T03:35:50.428Z,11.00
2017-10-05T03:38:17.955Z,11.00
2017-10-05T03:40:45.507Z,11.00
2017-10-05T03:43:13.035Z,11.00
2017-10-05T03:45:40.611Z,11.00
2017-10-05T03:48:08.143Z,11.00
2017-10-05T03:50:35.674Z,11.00
2017-10-05T03:53:03.976Z,11.00
2017-10-05T03:55:31.503Z,11.00
2017-10-05T03:57:59.834Z,11.00
2017-10-05T04:00:27.367Z,11.00
2017-10-05T04:02:54.922Z,10.90
2017-10-05T04:05:22.451Z,10.90
2017-10-05T04:07:50.007Z,10.90
2017-10-05T04:10:17.541Z,11.00
2017-10-05T04:12:45.098Z,10.90
2017-10-05T04:15:12.630Z,11.00
2017-10-05T04:17:40.200Z,10.90
2017-10-05T04:20:07.730Z,10.90
2017-10-05T04:22:36.022Z,10.90
2017-10-05T04:25:03.570Z,10.90
2017-10-05T04:27:38.511Z,10.90
2017-10-05T04:30:06.050Z,10.90
2017-10-05T04:32:33.575Z,10.90
2017-10-05T04:35:01.103Z,10.90
2017-10-05T04:37:28.634Z,10.90
2017-10-05T04:39:56.927Z,10.80
2017-10-05T04:42:24.458Z,10.90
2017-10-05T04:44:51.995Z,10.80
2017-10-05T04:47:19.534Z,10.80
2017-10-05T04:49:47.107Z,10.90
2017-10-05T04:52:14.635Z,10.90
2017-10-05T04:54:42.162Z,10.90
2017-10-05T04:57:09.693Z,10.90
2017-10-05T04:59:37.229Z,11.00
2017-10-05T05:02:04.771Z,11.00
2017-10-05T05:04:32.303Z,11.00
2017-10-05T05:06:59.830Z,11.00
2017-10-05T05:09:27.354Z,11.00
2017-10-05T05:11:54.895Z,11.00
2017-10-05T05:14:23.191Z,11.00
2017-10-05T05:16:50.721Z,11.00
2017-10-05T05:19:18.253Z,11.00
2017-10-05T05:21:45.779Z,11.00
2017-10-05T05:24:13.302Z,11.00
2017-10-05T05:26:40.854Z,11.00
2017-10-05T05:29:08.391Z,11.00
2017-10-05T05:31:35.922Z,11.00
2017-10-05T05:34:03.442Z,11.00
2017-10-05T05:36:30.974Z,11.00
2017-10-05T05:38:58.510Z,11.00
2017-10-05T05:41:26.047Z,11.00
2017-10-05T05:43:57.293Z,11.00
2017-10-05T05:46:25.582Z,11.00
2017-10-05T05:48:53.106Z,11.00
2017-10-05T05:51:20.638Z,11.00
2017-10-05T05:53:48.199Z,11.00
2017-10-05T05:56:15.721Z,11.00
2017-10-05T05:58:43.298Z,11.00
2017-10-05T06:01:10.831Z,11.00
2017-10-05T06:03:39.128Z,11.10
2017-10-05T06:06:08.362Z,11.10
2017-10-05T06:08:35.890Z,11.10
2017-10-05T06:11:03.417Z,11.10
2017-10-05T06:13:31.715Z,11.10
2017-10-05T06:15:59.247Z,11.10
2017-10-05T06:18:26.771Z,11.10
2017-10-05T06:20:54.293Z,11.10
2017-10-05T06:23:21.814Z,11.10
2017-10-05T06:25:49.399Z,11.10
2017-10-05T06:28:17.695Z,11.10
2017-10-05T06:30:45.231Z,11.10
2017-10-05T06:33:13.541Z,11.20
2017-10-05T06:35:41.069Z,11.10
2017-10-05T06:38:08.599Z,11.20
2017-10-05T06:40:36.134Z,11.10
2017-10-05T06:43:03.663Z,11.20
2017-10-05T06:45:31.958Z,11.20
2017-10-05T06:47:59.487Z,11.20
2017-10-05T06:50:27.782Z,11.30
2017-10-05T06:52:56.113Z,11.20
2017-10-05T06:55:23.642Z,11.20
2017-10-05T06:57:51.185Z,11.20
2017-10-05T07:00:18.715Z,11.30
2017-10-05T07:02:46.268Z,11.30
2017-10-05T07:05:13.799Z,11.30
2017-10-05T07:07:42.547Z,11.20
2017-10-05T07:10:10.846Z,11.20
2017-10-05T07:12:41.887Z,11.20
2017-10-05T07:15:09.418Z,11.30
2017-10-05T07:17:37.707Z,11.30
2017-10-05T07:20:06.031Z,11.30
2017-10-05T07:22:33.579Z,11.30
2017-10-05T07:25:01.131Z,11.30
2017-10-05T07:27:28.666Z,11.30
2017-10-05T07:29:57.034Z,11.40
2017-10-05T07:32:25.327Z,11.40
2017-10-05T07:34:52.854Z,11.40
2017-10-05T07:37:20.374Z,11.40
2017-10-05T07:39:47.908Z,11.50
2017-10-05T07:42:15.466Z,11.50
2017-10-05T07:44:42.994Z,11.50
2017-10-05T07:47:10.585Z,11.50
2017-10-05T07:49:38.874Z,11.60
2017-10-05T07:52:06.418Z,11.60
2017-10-05T07:54:34.701Z,11.70
2017-10-05T07:57:03.038Z,11.70
2017-10-05T07:59:30.571Z,11.70
2017-10-05T08:01:58.118Z,11.80
2017-10-05T08:04:25.649Z,11.70
2017-10-05T08:06:53.943Z,11.70
2017-10-05T08:09:21.486Z,11.70
2017-10-05T08:11:49.783Z,11.80
2017-10-05T08:14:17.327Z,11.80
2017-10-05T08:16:45.615Z,11.80
2017-10-05T08:19:13.922Z,11.90
2017-10-05T08:21:41.450Z,11.80
2017-10-05T08:24:09.767Z,11.90
2017-10-05T08:26:37.294Z,11.90
2017-10-05T08:29:05.613Z,11.90
2017-10-05T08:31:33.139Z,11.90
2017-10-05T08:34:00.666Z,11.90
2017-10-05T08:36:28.190Z,11.90
2017-10-05T08:38:55.714Z,12.00
2017-10-05T08:41:23.267Z,12.00
2017-10-05T08:43:51.562Z,12.00
2017-10-05T08:46:19.109Z,12.00
2017-10-05T08:48:46.646Z,12.00
2017-10-05T08:51:14.197Z,12.00
2017-10-05T08:53:41.732Z,12.00
2017-10-05T08:56:09.278Z,12.00
2017-10-05T08:58:36.811Z,12.10
2017-10-05T09:01:04.379Z,12.10
2017-10-05T09:03:31.905Z,12.10
2017-10-05T09:05:59.434Z,12.20
2017-10-05T09:08:26.967Z,12.20
2017-10-05T09:10:54.490Z,12.30
2017-10-05T09:13:22.044Z,12.40
2017-10-05T09:15:49.571Z,12.30
2017-10-05T09:18:17.115Z,12.40
2017-10-05T09:20:44.642Z,12.30
2017-10-05T09:23:12.958Z,12.50
2017-10-05T09:25:40.487Z,12.50
2017-10-05T09:28:08.802Z,12.60
2017-10-05T09:30:36.341Z,12.60
2017-10-05T09:33:03.885Z,12.80
2017-10-05T09:35:32.170Z,12.90
2017-10-05T09:37:59.720Z,12.80
2017-10-05T09:40:28.015Z,13.00
2017-10-05T09:42:55.538Z,13.00
2017-10-05T09:45:23.103Z,13.00
2017-10-05T09:47:50.622Z,13.00
2017-10-05T09:50:18.146Z,13.20
2017-10-05T09:52:46.434Z,13.30
2017-10-05T09:55:13.962Z,13.30
2017-10-05T09:57:42.262Z,13.10
2017-10-05T10:00:09.790Z,13.10
2017-10-05T10:02:37.322Z,13.20
2017-10-05T10:05:04.882Z,13.20
2017-10-05T10:07:32.412Z,13.40
2017-10-05T10:09:59.937Z,13.50
2017-10-05T10:12:27.466Z,13.60
2017-10-05T10:14:54.986Z,13.80
2017-10-05T10:17:22.511Z,13.80
2017-10-05T10:19:50.062Z,13.80
2017-10-05T10:22:17.618Z,13.90
2017-10-05T10:24:45.151Z,14.40
2017-10-05T10:27:12.675Z,14.70
2017-10-05T10:29:40.967Z,15.50
2017-10-05T10:32:08.537Z,15.40
2017-10-05T10:34:36.058Z,15.10
2017-10-05T10:37:03.588Z,14.80
2017-10-05T10:39:31.114Z,15.40
2017-10-05T10:41:58.643Z,15.60
2017-10-05T10:44:26.931Z,16.20
2017-10-05T10:46:55.228Z,16.30
2017-10-05T10:49:22.763Z,16.30
2017-10-05T10:51:51.065Z,16.10
2017-10-05T10:54:18.590Z,16.10
2017-10-05T10:56:46.109Z,16.40
2017-10-05T10:59:13.637Z,16.50
2017-10-05T11:01:41.153Z,16.10
2017-10-05T11:04:08.723Z,15.70
2017-10-05T11:06:36.245Z,15.50
2017-10-05T11:09:03.770Z,15.60
2017-10-05T11:11:32.067Z,15.40
2017-10-05T11:13:59.590Z,15.40
2017-10-05T11:16:27.110Z,15.50
2017-10-05T11:18:54.630Z,15.60
2017-10-05T11:21:22.922Z,15.30
2017-10-05T11:23:50.451Z,15.30
2017-10-05T11:26:18.746Z,15.60
2017-10-05T11:28:46.282Z,15.50
2017-10-05T11:31:13.837Z,15.60
2017-10-05T11:33:41.371Z,15.20
2017-10-05T11:36:08.919Z,14.90
2017-10-05T11:38:36.443Z,14.50
2017-10-05T11:41:04.778Z,14.40
2017-10-05T11:43:32.306Z,14.40
2017-10-05T11:45:59.833Z,14.70
2017-10-05T11:48:28.138Z,14.10
2017-10-05T11:50:55.675Z,14.10
2017-10-05T11:53:23.958Z,13.50
2017-10-05T11:55:52.259Z,13.40
2017-10-05T11:58:19.791Z,13.40
2017-10-05T12:00:48.083Z,13.30
2017-10-05T12:03:15.654Z,13.30
2017-10-05T12:05:43.185Z,13.40
2017-10-05T12:08:11.500Z,13.50
2017-10-05T12:10:39.029Z,13.50
2017-10-05T12:13:07.342Z,13.50
2017-10-05T12:15:34.871Z,13.50
2017-10-05T12:18:03.186Z,13.70
2017-10-05T12:20:30.715Z,13.70
2017-10-05T12:22:58.282Z,13.70
2017-10-05T12:25:25.814Z,13.60
2017-10-05T12:28:03.782Z,13.80
2017-10-05T12:30:44.933Z,13.80
2017-10-05T12:33:14.569Z,13.50
2017-10-05T12:35:44.674Z,13.20
2017-10-05T12:38:16.708Z,13.10
2017-10-05T12:40:45.493Z,12.50
2017-10-05T12:43:14.206Z,12.40
2017-10-05T12:45:44.123Z,12.30
2017-10-05T12:48:12.071Z,12.20
2017-10-05T12:50:40.270Z,12.10
2017-10-05T12:53:08.277Z,12.10
2017-10-05T12:55:36.735Z,12.10
2017-10-05T12:58:04.818Z,12.10
2017-10-05T13:00:34.093Z,12.20
2017-10-05T13:03:03.090Z,12.30
2017-10-05T13:05:31.468Z,12.30
2017-10-05T13:08:00.242Z,12.60
2017-10-05T13:10:30.344Z,12.70
2017-10-05T13:13:01.728Z,12.60
2017-10-05T13:15:29.902Z,12.60
2017-10-05T13:18:01.649Z,12.60
2017-10-05T13:20:31.066Z,12.60
2017-10-05T13:22:59.121Z,12.60
2017-10-05T13:25:28.081Z,12.50
2017-10-05T13:27:55.642Z,12.50
2017-10-05T13:30:23.166Z,12.40
2017-10-05T13:32:50.693Z,12.40
2017-10-05T13:35:18.223Z,12.40
2017-10-05T13:37:45.759Z,12.30
2017-10-05T13:40:14.089Z,12.40
2017-10-05T13:42:41.615Z,12.40
2017-10-05T13:45:09.146Z,12.40
2017-10-05T13:47:36.670Z,12.40
2017-10-05T13:50:04.199Z,12.40
2017-10-05T13:52:31.800Z,12.20
2017-10-05T13:54:59.327Z,12.10
2017-10-05T13:57:26.862Z,12.00
2017-10-05T13:59:55.154Z,12.00
2017-10-05T14:02:23.497Z,12.10
2017-10-05T14:04:51.021Z,12.10
2017-10-05T14:07:18.618Z,11.90
2017-10-05T14:09:46.176Z,11.80
2017-10-05T14:12:13.699Z,11.70
2017-10-05T14:14:41.226Z,11.60
2017-10-05T14:17:09.520Z,12.00
2017-10-05T14:19:37.077Z,12.00
2017-10-05T14:22:04.608Z,12.20
2017-10-05T14:24:32.136Z,12.30
2017-10-05T14:26:59.662Z,12.20
2017-10-05T14:29:27.193Z,12.20
2017-10-05T14:31:54.720Z,12.20
2017-10-05T14:34:22.247Z,12.10
2017-10-05T14:36:49.778Z,12.10
2017-10-05T14:39:18.086Z,12.50
2017-10-05T14:41:45.606Z,12.40
2017-10-05T14:44:13.159Z,12.40
2017-10-05T14:46:40.678Z,12.50
2017-10-05T14:49:08.548Z,12.50
2017-10-05T14:51:36.070Z,12.30
2017-10-05T14:54:04.418Z,12.10
2017-10-05T14:56:31.948Z,12.10
2017-10-05T14:58:59.478Z,12.00
2017-10-05T15:01:27.771Z,12.00
2017-10-05T15:03:55.293Z,12.00
2017-10-05T15:06:22.818Z,12.00
2017-10-05T15:08:50.339Z,12.00
2017-10-05T15:11:17.885Z,12.00
2017-10-05T15:13:46.183Z,11.80
2017-10-05T15:16:13.734Z,11.80
2017-10-05T15:18:42.026Z,11.70
2017-10-05T15:21:09.554Z,11.60
2017-10-05T15:23:37.848Z,11.60
2017-10-05T15:26:06.147Z,11.70
2017-10-05T15:28:33.676Z,11.70
2017-10-05T15:31:01.970Z,11.60
2017-10-05T15:33:29.531Z,11.60
2017-10-05T15:35:57.059Z,11.50
2017-10-05T15:38:28.421Z,11.50
2017-10-05T15:40:56.714Z,11.40
2017-10-05T15:43:25.044Z,11.50
2017-10-05T15:45:52.579Z,11.40
2017-10-05T15:48:20.099Z,11.40
2017-10-05T15:50:48.395Z,11.50
2017-10-05T15:53:15.923Z,11.50
2017-10-05T15:55:43.446Z,11.50
2017-10-05T15:58:10.973Z,11.50
2017-10-05T16:00:38.530Z,11.50
2017-10-05T16:03:06.824Z,11.50
2017-10-05T16:05:34.370Z,11.50
2017-10-05T16:08:02.668Z,11.40
2017-10-05T16:10:30.222Z,11.40
2017-10-05T16:12:57.767Z,11.40
2017-10-05T16:15:26.093Z,11.30
2017-10-05T16:17:53.642Z,11.30
2017-10-05T16:20:21.206Z,11.30
2017-10-05T16:22:48.736Z,11.30
2017-10-05T16:25:16.259Z,11.30
2017-10-05T16:27:43.790Z,11.20
2017-10-05T16:30:11.314Z,11.20
2017-10-05T16:32:38.862Z,11.00
2017-10-05T16:35:07.154Z,10.80
2017-10-05T16:37:34.714Z,10.80
2017-10-05T16:40:02.247Z,10.70
2017-10-05T16:42:30.562Z,10.60
2017-10-05T16:44:58.095Z,10.60
2017-10-05T16:47:26.414Z,10.60
2017-10-05T16:49:53.940Z,10.60
2017-10-05T16:52:22.275Z,10.50
2017-10-05T16:54:49.803Z,10.50
2017-10-05T16:57:17.343Z,10.60
2017-10-05T16:59:44.871Z,10.50
2017-10-05T17:02:12.394Z,10.50
2017-10-05T17:04:39.919Z,10.50
2017-10-05T17:07:07.455Z,10.60
2017-10-05T17:09:35.002Z,10.60
2017-10-05T17:12:02.533Z,10.50
2017-10-05T17:14:30.091Z,10.50
2017-10-05T17:16:57.621Z,10.50
2017-10-05T17:19:25.950Z,10.60
2017-10-05T17:21:53.484Z,10.60
2017-10-05T17:24:21.015Z,10.50
2017-10-05T17:26:49.302Z,10.50
2017-10-05T17:29:16.829Z,10.50
2017-10-05T17:31:44.353Z,10.50
2017-10-05T17:34:11.882Z,10.50
2017-10-05T17:36:39.437Z,10.80
2017-10-05T17:39:06.971Z,10.50
2017-10-05T17:41:34.601Z,10.60
2017-10-05T17:44:02.134Z,10.60
2017-10-05T17:46:29.698Z,10.60
2017-10-05T17:48:57.660Z,10.60
2017-10-05T17:51:25.225Z,10.70
2017-10-05T17:53:52.750Z,10.80
2017-10-05T17:56:20.274Z,10.80
2017-10-05T17:58:47.793Z,10.80
2017-10-05T18:01:15.488Z,10.90
2017-10-05T18:03:43.046Z,10.80
2017-10-05T18:06:12.213Z,10.80
2017-10-05T18:08:39.771Z,10.70
2017-10-05T18:11:08.078Z,10.50
2017-10-05T18:13:35.944Z,10.50
2017-10-05T18:16:03.478Z,10.50
2017-10-05T18:18:31.806Z,10.40
2017-10-05T18:20:59.347Z,10.40
2017-10-05T18:23:26.929Z,10.40
2017-10-05T18:25:54.454Z,10.40
2017-10-05T18:28:22.054Z,10.40
2017-10-05T18:30:49.662Z,10.40
2017-10-05T18:33:17.959Z,10.50
2017-10-05T18:35:45.527Z,10.50
2017-10-05T18:38:13.062Z,10.60
2017-10-05T18:40:40.595Z,10.60
2017-10-05T18:43:08.119Z,10.50
2017-10-05T18:45:35.658Z,10.50
2017-10-05T18:48:03.190Z,10.40
2017-10-05T18:50:31.494Z,10.50
2017-10-05T18:52:59.021Z,10.50
2017-10-05T18:55:27.367Z,10.40
2017-10-05T18:58:05.111Z,10.40
2017-10-05T19:00:32.711Z,10.40
2017-10-05T19:03:00.250Z,10.30
2017-10-05T19:05:27.813Z,10.30
2017-10-05T19:07:55.365Z,10.30
2017-10-05T19:10:22.931Z,10.30
2017-10-05T19:12:50.487Z,10.00
2017-10-05T19:15:18.036Z,10.40
2017-10-05T19:17:45.585Z,10.30
2017-10-05T19:20:13.133Z,10.40
2017-10-05T19:22:40.679Z,10.30
2017-10-05T19:25:08.230Z,10.30
2017-10-05T19:27:36.560Z,10.20
2017-10-05T19:30:04.117Z,10.20
2017-10-05T19:32:31.693Z,10.20
2017-10-05T19:34:59.231Z,10.20
2017-10-05T19:37:26.803Z,10.10
2017-10-05T19:39:54.364Z,10.10
2017-10-05T19:42:21.936Z,10.10
2017-10-05T19:44:49.478Z,10.10
2017-10-05T19:47:17.044Z,10.10
2017-10-05T19:49:44.587Z,10.20
2017-10-05T19:52:12.223Z,10.10
2017-10-05T19:54:39.808Z,10.10
2017-10-05T19:57:07.383Z,10.10
2017-10-05T19:59:34.960Z,10.10
2017-10-05T20:02:02.495Z,10.10
2017-10-05T20:04:30.041Z,10.00
2017-10-05T20:06:57.595Z,10.00
2017-10-05T20:09:25.131Z,10.00
2017-10-05T20:11:53.434Z,10.00
2017-10-05T20:14:20.972Z,10.00
2017-10-05T20:16:54.951Z,10.10
2017-10-05T20:19:22.495Z,10.10
2017-10-05T20:21:50.831Z,10.10
2017-10-05T20:24:19.140Z,10.00
2017-10-05T20:27:04.463Z,10.00
2017-10-05T20:29:36.473Z,10.00
2017-10-05T20:32:04.007Z,10.00
2017-10-05T20:34:32.307Z,10.00
2017-10-05T20:36:59.847Z,10.00
2017-10-05T20:39:28.152Z,9.90
2017-10-05T20:41:55.687Z,9.90
2017-10-05T20:44:24.017Z,10.00
2017-10-05T20:46:51.548Z,9.90
2017-10-05T20:49:19.084Z,10.00
2017-10-05T20:51:47.419Z,10.20
2017-10-05T20:54:14.962Z,10.20
2017-10-05T20:56:42.531Z,10.20
2017-10-05T20:59:10.073Z,10.10
2017-10-05T21:01:37.639Z,10.00
2017-10-05T21:04:05.180Z,10.00
2017-10-05T21:06:32.777Z,10.00
2017-10-05T21:09:00.315Z,10.00
2017-10-05T21:11:27.855Z,10.00
2017-10-05T21:13:56.152Z,9.90
2017-10-05T21:16:23.687Z,9.90
